sensor_id;sensor_type;location;lat;lon;timestamp;temperature;humidity
32614;DHT22;19031;51.400;6.770;2023-05-10T00:00:07;14.10;99.90
32614;DHT22;19031;51.400;6.770;2023-05-10T00:02:34;14.00;99.90
32614;DHT22;19031;51.400;6.770;2023-05-10T00:05:00;13.90;99.90
32614;DHT22;19031;51.400;6.770;2023-05-10T00:07:26;13.90;99.90
32614;DHT22;19031;51.400;6.770;2023-05-10T00:09:52;13.90;99.90
32614;DHT22;19031;51.400;6.770;2023-05-10T00:12:17;13.80;99.90
32614;DHT22;19031;51.400;6.770;2023-05-10T00:14:43;13.90;99.90
32614;DHT22;19031;51.400;6.770;2023-05-10T00:17:08;13.90;99.90
32614;DHT22;19031;51.400;6.770;2023-05-10T00:19:34;13.90;99.90
32614;DHT22;19031;51.400;6.770;2023-05-10T00:21:59;13.80;99.90
32614;DHT22;19031;51.400;6.770;2023-05-10T00:24:25;13.80;99.90
32614;DHT22;19031;51.400;6.770;2023-05-10T00:26:51;13.90;99.90
32614;DHT22;19031;51.400;6.770;2023-05-10T00:29:16;13.90;99.90
32614;DHT22;19031;51.400;6.770;2023-05-10T00:31:42;14.00;99.90
32614;DHT22;19031;51.400;6.770;2023-05-10T00:34:07;13.80;99.90
32614;DHT22;19031;51.400;6.770;2023-05-10T00:36:33;13.90;99.90
32614;DHT22;19031;51.400;6.770;2023-05-10T00:38:58;13.80;99.90
32614;DHT22;19031;51.400;6.770;2023-05-10T00:41:24;13.70;99.90
32614;DHT22;19031;51.400;6.770;2023-05-10T00:43:50;13.80;99.90
32614;DHT22;19031;51.400;6.770;2023-05-10T00:46:15;13.80;99.90
32614;DHT22;19031;51.400;6.770;2023-05-10T00:48:42;13.70;99.90
32614;DHT22;19031;51.400;6.770;2023-05-10T00:51:07;13.70;99.90
32614;DHT22;19031;51.400;6.770;2023-05-10T00:53:34;13.80;99.90
32614;DHT22;19031;51.400;6.770;2023-05-10T00:56:00;13.80;99.90
32614;DHT22;19031;51.400;6.770;2023-05-10T00:58:27;13.80;99.90
32614;DHT22;19031;51.400;6.770;2023-05-10T01:00:54;13.60;99.90
32614;DHT22;19031;51.400;6.770;2023-05-10T01:03:20;13.70;99.90
32614;DHT22;19031;51.400;6.770;2023-05-10T01:05:46;13.70;99.90
32614;DHT22;19031;51.400;6.770;2023-05-10T01:08:12;13.60;99.90
32614;DHT22;19031;51.400;6.770;2023-05-10T01:10:37;13.60;99.90
32614;DHT22;19031;51.400;6.770;2023-05-10T01:13:03;13.60;99.90
32614;DHT22;19031;51.400;6.770;2023-05-10T01:15:29;13.60;99.90
32614;DHT22;19031;51.400;6.770;2023-05-10T01:17:56;13.70;99.90
32614;DHT22;19031;51.400;6.770;2023-05-10T01:20:22;13.60;99.90
32614;DHT22;19031;51.400;6.770;2023-05-10T01:23:08;13.70;99.90
32614;DHT22;19031;51.400;6.770;2023-05-10T01:37:52;13.60;99.90
32614;DHT22;19031;51.400;6.770;2023-05-10T01:43:21;13.60;99.90
32614;DHT22;19031;51.400;6.770;2023-05-10T01:46:01;13.70;99.90
32614;DHT22;19031;51.400;6.770;2023-05-10T01:48:30;13.60;99.90
32614;DHT22;19031;51.400;6.770;2023-05-10T01:50:56;13.50;99.90
32614;DHT22;19031;51.400;6.770;2023-05-10T01:53:23;13.50;99.90
32614;DHT22;19031;51.400;6.770;2023-05-10T01:55:52;13.40;99.90
32614;DHT22;19031;51.400;6.770;2023-05-10T01:58:23;13.50;99.90
32614;DHT22;19031;51.400;6.770;2023-05-10T02:00:53;13.50;99.90
32614;DHT22;19031;51.400;6.770;2023-05-10T02:03:24;13.40;99.90
32614;DHT22;19031;51.400;6.770;2023-05-10T02:05:50;13.40;99.90
32614;DHT22;19031;51.400;6.770;2023-05-10T02:08:18;13.40;99.90
32614;DHT22;19031;51.400;6.770;2023-05-10T02:10:45;13.50;99.90
32614;DHT22;19031;51.400;6.770;2023-05-10T02:13:13;13.60;99.90
32614;DHT22;19031;51.400;6.770;2023-05-10T02:15:40;13.60;99.90
32614;DHT22;19031;51.400;6.770;2023-05-10T02:18:07;13.60;99.90
32614;DHT22;19031;51.400;6.770;2023-05-10T02:20:35;13.70;99.90
32614;DHT22;19031;51.400;6.770;2023-05-10T02:23:02;13.70;99.90
32614;DHT22;19031;51.400;6.770;2023-05-10T02:25:28;13.70;99.90
32614;DHT22;19031;51.400;6.770;2023-05-10T02:27:56;13.90;99.90
32614;DHT22;19031;51.400;6.770;2023-05-10T02:30:22;13.80;99.90
32614;DHT22;19031;51.400;6.770;2023-05-10T02:32:49;13.90;99.90
32614;DHT22;19031;51.400;6.770;2023-05-10T02:35:16;13.80;99.90
32614;DHT22;19031;51.400;6.770;2023-05-10T02:37:42;13.80;99.90
32614;DHT22;19031;51.400;6.770;2023-05-10T02:40:10;13.80;99.90
32614;DHT22;19031;51.400;6.770;2023-05-10T02:42:37;13.80;99.90
32614;DHT22;19031;51.400;6.770;2023-05-10T02:45:17;13.80;99.90
32614;DHT22;19031;51.400;6.770;2023-05-10T02:47:43;13.80;99.90
32614;DHT22;19031;51.400;6.770;2023-05-10T02:50:09;13.60;99.90
32614;DHT22;19031;51.400;6.770;2023-05-10T02:52:47;13.60;99.90
32614;DHT22;19031;51.400;6.770;2023-05-10T02:55:16;13.70;99.90
32614;DHT22;19031;51.400;6.770;2023-05-10T02:57:48;13.60;99.90
32614;DHT22;19031;51.400;6.770;2023-05-10T03:00:14;13.60;99.90
32614;DHT22;19031;51.400;6.770;2023-05-10T03:02:40;13.70;99.90
32614;DHT22;19031;51.400;6.770;2023-05-10T03:05:05;13.70;99.90
32614;DHT22;19031;51.400;6.770;2023-05-10T03:07:32;13.80;99.90
32614;DHT22;19031;51.400;6.770;2023-05-10T03:09:58;13.80;99.90
32614;DHT22;19031;51.400;6.770;2023-05-10T03:15:37;13.90;99.90
32614;DHT22;19031;51.400;6.770;2023-05-10T03:18:28;13.90;99.90
32614;DHT22;19031;51.400;6.770;2023-05-10T03:21:02;13.90;99.90
32614;DHT22;19031;51.400;6.770;2023-05-10T03:23:38;13.80;99.90
32614;DHT22;19031;51.400;6.770;2023-05-10T03:26:05;13.90;99.90
32614;DHT22;19031;51.400;6.770;2023-05-10T03:28:34;13.90;99.90
32614;DHT22;19031;51.400;6.770;2023-05-10T03:31:00;13.90;99.90
32614;DHT22;19031;51.400;6.770;2023-05-10T03:33:26;13.90;99.90
32614;DHT22;19031;51.400;6.770;2023-05-10T03:35:51;13.90;99.90
32614;DHT22;19031;51.400;6.770;2023-05-10T03:38:17;13.90;99.90
32614;DHT22;19031;51.400;6.770;2023-05-10T03:40:42;13.80;99.90
32614;DHT22;19031;51.400;6.770;2023-05-10T03:43:08;13.70;99.90
32614;DHT22;19031;51.400;6.770;2023-05-10T03:45:34;13.80;99.90
32614;DHT22;19031;51.400;6.770;2023-05-10T03:48:00;13.70;99.90
32614;DHT22;19031;51.400;6.770;2023-05-10T03:50:25;13.70;99.90
32614;DHT22;19031;51.400;6.770;2023-05-10T03:52:51;13.80;99.90
32614;DHT22;19031;51.400;6.770;2023-05-10T03:55:17;13.90;99.90
32614;DHT22;19031;51.400;6.770;2023-05-10T03:57:42;13.80;99.90
32614;DHT22;19031;51.400;6.770;2023-05-10T04:00:09;13.90;99.90
32614;DHT22;19031;51.400;6.770;2023-05-10T04:02:35;13.90;99.90
32614;DHT22;19031;51.400;6.770;2023-05-10T04:05:00;13.90;99.90
32614;DHT22;19031;51.400;6.770;2023-05-10T04:07:26;13.90;99.90
32614;DHT22;19031;51.400;6.770;2023-05-10T04:09:52;13.80;99.90
32614;DHT22;19031;51.400;6.770;2023-05-10T04:12:17;13.90;99.90
32614;DHT22;19031;51.400;6.770;2023-05-10T04:14:43;13.80;99.90
32614;DHT22;19031;51.400;6.770;2023-05-10T04:17:08;13.80;99.90
32614;DHT22;19031;51.400;6.770;2023-05-10T04:19:34;13.80;99.90
32614;DHT22;19031;51.400;6.770;2023-05-10T04:22:00;13.90;99.90
32614;DHT22;19031;51.400;6.770;2023-05-10T04:24:27;13.90;99.90
32614;DHT22;19031;51.400;6.770;2023-05-10T04:26:54;14.00;99.90
32614;DHT22;19031;51.400;6.770;2023-05-10T04:29:19;13.80;99.90
32614;DHT22;19031;51.400;6.770;2023-05-10T04:31:45;13.90;99.90
32614;DHT22;19031;51.400;6.770;2023-05-10T04:34:11;13.80;99.90
32614;DHT22;19031;51.400;6.770;2023-05-10T04:36:36;13.90;99.90
32614;DHT22;19031;51.400;6.770;2023-05-10T04:39:03;13.90;99.90
32614;DHT22;19031;51.400;6.770;2023-05-10T04:41:29;13.90;99.90
32614;DHT22;19031;51.400;6.770;2023-05-10T04:43:55;13.90;99.90
32614;DHT22;19031;51.400;6.770;2023-05-10T04:46:20;14.00;99.90
32614;DHT22;19031;51.400;6.770;2023-05-10T04:48:46;14.00;99.90
32614;DHT22;19031;51.400;6.770;2023-05-10T04:51:11;13.90;99.90
32614;DHT22;19031;51.400;6.770;2023-05-10T04:53:37;14.00;99.90
32614;DHT22;19031;51.400;6.770;2023-05-10T04:56:03;14.00;99.90
32614;DHT22;19031;51.400;6.770;2023-05-10T04:58:29;14.00;99.90
32614;DHT22;19031;51.400;6.770;2023-05-10T05:00:54;14.10;99.90
32614;DHT22;19031;51.400;6.770;2023-05-10T05:03:20;14.10;99.90
32614;DHT22;19031;51.400;6.770;2023-05-10T05:05:45;14.20;99.90
32614;DHT22;19031;51.400;6.770;2023-05-10T05:08:11;14.10;99.90
32614;DHT22;19031;51.400;6.770;2023-05-10T05:10:37;14.00;99.90
32614;DHT22;19031;51.400;6.770;2023-05-10T05:13:02;14.10;99.90
32614;DHT22;19031;51.400;6.770;2023-05-10T05:15:28;14.10;99.90
32614;DHT22;19031;51.400;6.770;2023-05-10T05:17:55;14.10;99.90
32614;DHT22;19031;51.400;6.770;2023-05-10T05:20:20;14.20;99.90
32614;DHT22;19031;51.400;6.770;2023-05-10T05:22:46;14.30;99.90
32614;DHT22;19031;51.400;6.770;2023-05-10T05:25:12;14.10;99.90
32614;DHT22;19031;51.400;6.770;2023-05-10T05:27:38;14.10;99.90
32614;DHT22;19031;51.400;6.770;2023-05-10T05:30:05;14.10;99.90
32614;DHT22;19031;51.400;6.770;2023-05-10T05:32:31;14.10;99.90
32614;DHT22;19031;51.400;6.770;2023-05-10T05:34:56;14.20;99.90
32614;DHT22;19031;51.400;6.770;2023-05-10T05:37:22;14.30;99.90
32614;DHT22;19031;51.400;6.770;2023-05-10T05:39:48;14.10;99.90
32614;DHT22;19031;51.400;6.770;2023-05-10T05:42:14;14.30;99.90
32614;DHT22;19031;51.400;6.770;2023-05-10T05:44:41;14.30;99.90
32614;DHT22;19031;51.400;6.770;2023-05-10T05:47:07;14.40;99.90
32614;DHT22;19031;51.400;6.770;2023-05-10T05:49:32;14.20;99.90
32614;DHT22;19031;51.400;6.770;2023-05-10T05:51:59;14.10;99.90
32614;DHT22;19031;51.400;6.770;2023-05-10T05:54:26;14.20;99.90
32614;DHT22;19031;51.400;6.770;2023-05-10T05:56:54;14.20;99.90
32614;DHT22;19031;51.400;6.770;2023-05-10T05:59:21;14.20;99.90
32614;DHT22;19031;51.400;6.770;2023-05-10T06:01:46;14.10;99.90
32614;DHT22;19031;51.400;6.770;2023-05-10T06:04:12;14.10;99.90
32614;DHT22;19031;51.400;6.770;2023-05-10T06:06:40;14.20;99.90
32614;DHT22;19031;51.400;6.770;2023-05-10T06:09:06;14.30;99.90
32614;DHT22;19031;51.400;6.770;2023-05-10T06:11:31;14.30;99.90
32614;DHT22;19031;51.400;6.770;2023-05-10T06:13:58;14.20;99.90
32614;DHT22;19031;51.400;6.770;2023-05-10T06:16:23;14.20;99.90
32614;DHT22;19031;51.400;6.770;2023-05-10T06:18:49;14.20;99.90
32614;DHT22;19031;51.400;6.770;2023-05-10T06:21:15;14.10;99.90
32614;DHT22;19031;51.400;6.770;2023-05-10T06:23:41;14.20;99.90
32614;DHT22;19031;51.400;6.770;2023-05-10T06:26:07;14.20;99.90
32614;DHT22;19031;51.400;6.770;2023-05-10T06:28:32;14.20;99.90
32614;DHT22;19031;51.400;6.770;2023-05-10T06:30:59;14.20;99.90
32614;DHT22;19031;51.400;6.770;2023-05-10T06:33:24;14.20;99.90
32614;DHT22;19031;51.400;6.770;2023-05-10T06:35:50;14.20;99.90
32614;DHT22;19031;51.400;6.770;2023-05-10T06:38:15;14.30;99.90
32614;DHT22;19031;51.400;6.770;2023-05-10T06:40:42;14.40;99.90
32614;DHT22;19031;51.400;6.770;2023-05-10T06:43:07;14.30;99.90
32614;DHT22;19031;51.400;6.770;2023-05-10T06:45:33;14.40;99.90
32614;DHT22;19031;51.400;6.770;2023-05-10T06:47:58;14.60;99.90
32614;DHT22;19031;51.400;6.770;2023-05-10T06:50:24;14.70;99.90
32614;DHT22;19031;51.400;6.770;2023-05-10T06:52:49;14.80;99.90
32614;DHT22;19031;51.400;6.770;2023-05-10T06:55:15;14.80;99.90
32614;DHT22;19031;51.400;6.770;2023-05-10T06:57:41;14.90;99.90
32614;DHT22;19031;51.400;6.770;2023-05-10T07:00:09;15.00;99.90
32614;DHT22;19031;51.400;6.770;2023-05-10T07:02:35;15.00;99.90
32614;DHT22;19031;51.400;6.770;2023-05-10T07:05:01;14.90;99.90
32614;DHT22;19031;51.400;6.770;2023-05-10T07:07:30;14.80;99.90
32614;DHT22;19031;51.400;6.770;2023-05-10T07:09:56;14.90;99.90
32614;DHT22;19031;51.400;6.770;2023-05-10T07:12:23;14.80;99.90
32614;DHT22;19031;51.400;6.770;2023-05-10T07:14:49;14.70;99.90
32614;DHT22;19031;51.400;6.770;2023-05-10T07:17:14;14.80;99.90
32614;DHT22;19031;51.400;6.770;2023-05-10T07:19:43;14.80;99.90
32614;DHT22;19031;51.400;6.770;2023-05-10T07:22:09;14.70;99.90
32614;DHT22;19031;51.400;6.770;2023-05-10T07:24:35;14.60;99.90
32614;DHT22;19031;51.400;6.770;2023-05-10T07:27:03;14.70;99.90
32614;DHT22;19031;51.400;6.770;2023-05-10T07:29:29;14.70;99.90
32614;DHT22;19031;51.400;6.770;2023-05-10T07:31:55;14.70;99.90
32614;DHT22;19031;51.400;6.770;2023-05-10T07:34:21;14.70;99.90
32614;DHT22;19031;51.400;6.770;2023-05-10T07:36:46;14.80;99.90
32614;DHT22;19031;51.400;6.770;2023-05-10T07:39:15;15.00;99.90
32614;DHT22;19031;51.400;6.770;2023-05-10T07:41:44;15.20;99.90
32614;DHT22;19031;51.400;6.770;2023-05-10T07:44:09;15.20;99.90
32614;DHT22;19031;51.400;6.770;2023-05-10T07:46:35;15.40;99.90
32614;DHT22;19031;51.400;6.770;2023-05-10T07:49:00;15.50;99.90
32614;DHT22;19031;51.400;6.770;2023-05-10T07:51:26;15.70;99.90
32614;DHT22;19031;51.400;6.770;2023-05-10T07:53:53;15.80;99.90
32614;DHT22;19031;51.400;6.770;2023-05-10T07:56:29;15.80;99.90
32614;DHT22;19031;51.400;6.770;2023-05-10T07:58:57;16.20;99.90
32614;DHT22;19031;51.400;6.770;2023-05-10T08:01:23;16.40;99.90
32614;DHT22;19031;51.400;6.770;2023-05-10T08:03:49;16.50;99.90
32614;DHT22;19031;51.400;6.770;2023-05-10T08:06:17;16.40;99.90
32614;DHT22;19031;51.400;6.770;2023-05-10T08:08:43;16.50;99.90
32614;DHT22;19031;51.400;6.770;2023-05-10T08:11:15;16.60;99.90
32614;DHT22;19031;51.400;6.770;2023-05-10T08:13:40;16.70;99.90
32614;DHT22;19031;51.400;6.770;2023-05-10T08:16:06;16.40;99.90
32614;DHT22;19031;51.400;6.770;2023-05-10T08:18:35;16.40;99.90
32614;DHT22;19031;51.400;6.770;2023-05-10T08:21:00;16.70;99.90
32614;DHT22;19031;51.400;6.770;2023-05-10T08:23:26;16.80;99.90
32614;DHT22;19031;51.400;6.770;2023-05-10T08:25:54;16.80;99.90
32614;DHT22;19031;51.400;6.770;2023-05-10T08:28:20;16.40;99.90
32614;DHT22;19031;51.400;6.770;2023-05-10T08:30:45;16.30;99.90
32614;DHT22;19031;51.400;6.770;2023-05-10T08:33:11;16.20;99.90
32614;DHT22;19031;51.400;6.770;2023-05-10T08:35:39;16.30;99.90
32614;DHT22;19031;51.400;6.770;2023-05-10T08:38:05;16.20;99.90
32614;DHT22;19031;51.400;6.770;2023-05-10T08:40:31;16.40;99.90
32614;DHT22;19031;51.400;6.770;2023-05-10T08:43:07;16.50;99.90
32614;DHT22;19031;51.400;6.770;2023-05-10T08:45:40;16.70;99.90
32614;DHT22;19031;51.400;6.770;2023-05-10T08:48:09;16.70;99.90
32614;DHT22;19031;51.400;6.770;2023-05-10T08:50:36;16.80;99.90
32614;DHT22;19031;51.400;6.770;2023-05-10T08:53:05;16.60;99.90
32614;DHT22;19031;51.400;6.770;2023-05-10T08:55:32;16.30;99.90
32614;DHT22;19031;51.400;6.770;2023-05-10T08:57:59;16.20;99.90
32614;DHT22;19031;51.400;6.770;2023-05-10T09:00:25;16.30;99.90
32614;DHT22;19031;51.400;6.770;2023-05-10T09:02:51;16.30;99.90
32614;DHT22;19031;51.400;6.770;2023-05-10T09:05:17;16.50;99.90
32614;DHT22;19031;51.400;6.770;2023-05-10T09:07:43;16.50;99.90
32614;DHT22;19031;51.400;6.770;2023-05-10T09:10:09;16.40;99.90
32614;DHT22;19031;51.400;6.770;2023-05-10T09:12:36;16.40;99.90
32614;DHT22;19031;51.400;6.770;2023-05-10T09:15:02;16.50;99.90
32614;DHT22;19031;51.400;6.770;2023-05-10T09:17:29;16.60;99.90
32614;DHT22;19031;51.400;6.770;2023-05-10T09:20:03;16.50;99.90
32614;DHT22;19031;51.400;6.770;2023-05-10T09:22:30;16.40;99.90
32614;DHT22;19031;51.400;6.770;2023-05-10T09:25:09;16.30;99.90
32614;DHT22;19031;51.400;6.770;2023-05-10T09:27:37;16.30;99.90
32614;DHT22;19031;51.400;6.770;2023-05-10T09:30:04;16.40;99.90
32614;DHT22;19031;51.400;6.770;2023-05-10T09:32:44;16.40;99.90
32614;DHT22;19031;51.400;6.770;2023-05-10T09:35:13;16.40;99.90
32614;DHT22;19031;51.400;6.770;2023-05-10T09:37:42;16.40;99.90
32614;DHT22;19031;51.400;6.770;2023-05-10T09:40:12;16.50;99.90
32614;DHT22;19031;51.400;6.770;2023-05-10T09:42:59;16.30;99.90
32614;DHT22;19031;51.400;6.770;2023-05-10T09:45:30;16.50;99.90
32614;DHT22;19031;51.400;6.770;2023-05-10T09:47:56;16.50;99.90
32614;DHT22;19031;51.400;6.770;2023-05-10T09:50:23;16.80;99.90
32614;DHT22;19031;51.400;6.770;2023-05-10T09:52:57;16.90;99.90
32614;DHT22;19031;51.400;6.770;2023-05-10T09:55:47;17.00;99.90
32614;DHT22;19031;51.400;6.770;2023-05-10T09:58:15;16.90;99.90
32614;DHT22;19031;51.400;6.770;2023-05-10T10:00:47;17.00;99.90
32614;DHT22;19031;51.400;6.770;2023-05-10T10:03:18;17.00;99.90
32614;DHT22;19031;51.400;6.770;2023-05-10T10:05:47;16.80;99.90
32614;DHT22;19031;51.400;6.770;2023-05-10T10:08:16;16.80;99.90
32614;DHT22;19031;51.400;6.770;2023-05-10T10:10:42;16.60;99.90
32614;DHT22;19031;51.400;6.770;2023-05-10T10:13:11;16.60;99.90
32614;DHT22;19031;51.400;6.770;2023-05-10T10:15:37;16.50;99.90
32614;DHT22;19031;51.400;6.770;2023-05-10T10:18:03;16.30;99.90
32614;DHT22;19031;51.400;6.770;2023-05-10T10:20:30;16.10;99.90
32614;DHT22;19031;51.400;6.770;2023-05-10T10:22:56;16.00;99.90
32614;DHT22;19031;51.400;6.770;2023-05-10T10:25:21;16.00;99.90
32614;DHT22;19031;51.400;6.770;2023-05-10T10:35:42;16.20;99.90
32614;DHT22;19031;51.400;6.770;2023-05-10T10:38:09;16.30;99.90
32614;DHT22;19031;51.400;6.770;2023-05-10T10:40:34;16.40;99.90
32614;DHT22;19031;51.400;6.770;2023-05-10T10:43:27;16.30;99.90
32614;DHT22;19031;51.400;6.770;2023-05-10T10:46:16;16.30;99.90
32614;DHT22;19031;51.400;6.770;2023-05-10T10:48:48;16.60;99.90
32614;DHT22;19031;51.400;6.770;2023-05-10T10:51:14;16.90;99.90
32614;DHT22;19031;51.400;6.770;2023-05-10T10:53:40;16.80;99.90
32614;DHT22;19031;51.400;6.770;2023-05-10T10:56:11;16.90;99.90
32614;DHT22;19031;51.400;6.770;2023-05-10T10:58:38;16.60;99.90
32614;DHT22;19031;51.400;6.770;2023-05-10T11:01:17;16.40;99.90
32614;DHT22;19031;51.400;6.770;2023-05-10T11:06:34;16.00;99.90
32614;DHT22;19031;51.400;6.770;2023-05-10T11:09:09;16.00;99.90
32614;DHT22;19031;51.400;6.770;2023-05-10T11:11:35;16.00;99.90
32614;DHT22;19031;51.400;6.770;2023-05-10T11:14:06;16.20;99.90
32614;DHT22;19031;51.400;6.770;2023-05-10T11:16:44;16.20;99.90
32614;DHT22;19031;51.400;6.770;2023-05-10T11:19:11;16.20;99.90
32614;DHT22;19031;51.400;6.770;2023-05-10T11:21:51;16.30;99.90
32614;DHT22;19031;51.400;6.770;2023-05-10T11:24:19;16.60;99.90
32614;DHT22;19031;51.400;6.770;2023-05-10T11:26:45;16.90;99.90
32614;DHT22;19031;51.400;6.770;2023-05-10T11:29:13;17.10;99.90
32614;DHT22;19031;51.400;6.770;2023-05-10T11:31:43;17.30;99.90
32614;DHT22;19031;51.400;6.770;2023-05-10T11:34:09;17.40;99.90
32614;DHT22;19031;51.400;6.770;2023-05-10T11:36:36;17.40;99.90
32614;DHT22;19031;51.400;6.770;2023-05-10T11:39:02;17.40;99.90
32614;DHT22;19031;51.400;6.770;2023-05-10T11:41:29;17.40;99.90
32614;DHT22;19031;51.400;6.770;2023-05-10T11:43:56;17.50;99.90
32614;DHT22;19031;51.400;6.770;2023-05-10T11:46:24;17.70;99.90
32614;DHT22;19031;51.400;6.770;2023-05-10T11:48:53;17.50;99.90
32614;DHT22;19031;51.400;6.770;2023-05-10T11:51:23;17.40;99.90
32614;DHT22;19031;51.400;6.770;2023-05-10T11:53:53;17.30;99.90
32614;DHT22;19031;51.400;6.770;2023-05-10T11:56:19;17.30;99.90
32614;DHT22;19031;51.400;6.770;2023-05-10T11:58:55;17.50;99.90
32614;DHT22;19031;51.400;6.770;2023-05-10T12:01:22;17.40;99.90
32614;DHT22;19031;51.400;6.770;2023-05-10T12:03:55;17.50;99.90
32614;DHT22;19031;51.400;6.770;2023-05-10T12:06:30;17.30;99.90
32614;DHT22;19031;51.400;6.770;2023-05-10T12:08:57;17.20;99.90
32614;DHT22;19031;51.400;6.770;2023-05-10T12:11:27;17.10;99.90
32614;DHT22;19031;51.400;6.770;2023-05-10T12:13:56;17.20;99.90
32614;DHT22;19031;51.400;6.770;2023-05-10T12:16:24;17.40;99.90
32614;DHT22;19031;51.400;6.770;2023-05-10T12:18:51;17.70;99.90
32614;DHT22;19031;51.400;6.770;2023-05-10T12:21:21;17.80;99.90
32614;DHT22;19031;51.400;6.770;2023-05-10T12:23:50;18.00;99.90
32614;DHT22;19031;51.400;6.770;2023-05-10T12:26:16;17.90;99.90
32614;DHT22;19031;51.400;6.770;2023-05-10T12:28:42;18.00;99.90
32614;DHT22;19031;51.400;6.770;2023-05-10T12:31:08;18.40;99.90
32614;DHT22;19031;51.400;6.770;2023-05-10T12:33:44;18.60;99.90
32614;DHT22;19031;51.400;6.770;2023-05-10T12:36:12;18.60;99.90
32614;DHT22;19031;51.400;6.770;2023-05-10T12:38:42;19.10;99.90
32614;DHT22;19031;51.400;6.770;2023-05-10T12:41:13;19.70;99.90
32614;DHT22;19031;51.400;6.770;2023-05-10T12:43:39;20.10;99.90
32614;DHT22;19031;51.400;6.770;2023-05-10T12:46:16;20.60;99.90
32614;DHT22;19031;51.400;6.770;2023-05-10T12:48:42;21.00;99.90
32614;DHT22;19031;51.400;6.770;2023-05-10T12:51:09;21.30;99.90
32614;DHT22;19031;51.400;6.770;2023-05-10T12:53:39;21.60;99.90
32614;DHT22;19031;51.400;6.770;2023-05-10T12:56:05;22.00;99.90
32614;DHT22;19031;51.400;6.770;2023-05-10T12:58:31;22.50;99.90
32614;DHT22;19031;51.400;6.770;2023-05-10T13:00:58;22.90;99.90
32614;DHT22;19031;51.400;6.770;2023-05-10T13:03:24;22.90;99.90
32614;DHT22;19031;51.400;6.770;2023-05-10T13:05:52;23.40;99.90
32614;DHT22;19031;51.400;6.770;2023-05-10T13:08:20;23.50;99.90
32614;DHT22;19031;51.400;6.770;2023-05-10T13:10:46;23.70;99.90
32614;DHT22;19031;51.400;6.770;2023-05-10T13:13:12;23.20;99.90
32614;DHT22;19031;51.400;6.770;2023-05-10T13:15:37;22.80;99.90
32614;DHT22;19031;51.400;6.770;2023-05-10T13:18:03;22.80;99.90
32614;DHT22;19031;51.400;6.770;2023-05-10T13:20:28;22.90;99.90
32614;DHT22;19031;51.400;6.770;2023-05-10T13:22:54;23.00;99.90
32614;DHT22;19031;51.400;6.770;2023-05-10T13:25:20;22.90;99.90
32614;DHT22;19031;51.400;6.770;2023-05-10T13:27:45;22.60;99.90
32614;DHT22;19031;51.400;6.770;2023-05-10T13:30:11;22.70;99.90
32614;DHT22;19031;51.400;6.770;2023-05-10T13:32:37;22.90;99.90
32614;DHT22;19031;51.400;6.770;2023-05-10T13:35:04;22.70;99.90
32614;DHT22;19031;51.400;6.770;2023-05-10T13:37:30;22.50;99.90
32614;DHT22;19031;51.400;6.770;2023-05-10T13:39:56;22.50;99.90
32614;DHT22;19031;51.400;6.770;2023-05-10T13:42:22;22.10;99.90
32614;DHT22;19031;51.400;6.770;2023-05-10T13:44:51;22.00;99.90
32614;DHT22;19031;51.400;6.770;2023-05-10T13:47:16;22.40;99.90
32614;DHT22;19031;51.400;6.770;2023-05-10T13:49:42;22.90;99.90
32614;DHT22;19031;51.400;6.770;2023-05-10T13:52:08;23.40;99.90
32614;DHT22;19031;51.400;6.770;2023-05-10T13:54:38;23.70;99.90
32614;DHT22;19031;51.400;6.770;2023-05-10T13:57:03;24.40;99.90
32614;DHT22;19031;51.400;6.770;2023-05-10T13:59:29;25.10;99.90
32614;DHT22;19031;51.400;6.770;2023-05-10T14:01:57;25.20;99.90
32614;DHT22;19031;51.400;6.770;2023-05-10T14:04:22;25.10;99.90
32614;DHT22;19031;51.400;6.770;2023-05-10T14:06:48;25.30;99.90
32614;DHT22;19031;51.400;6.770;2023-05-10T14:09:13;25.00;99.90
32614;DHT22;19031;51.400;6.770;2023-05-10T14:11:39;25.20;99.90
32614;DHT22;19031;51.400;6.770;2023-05-10T14:14:08;25.60;99.90
32614;DHT22;19031;51.400;6.770;2023-05-10T14:16:34;26.20;99.90
32614;DHT22;19031;51.400;6.770;2023-05-10T14:19:00;26.70;99.90
32614;DHT22;19031;51.400;6.770;2023-05-10T14:21:25;26.80;99.90
32614;DHT22;19031;51.400;6.770;2023-05-10T14:23:51;26.20;99.80
32614;DHT22;19031;51.400;6.770;2023-05-10T14:26:17;26.50;99.70
32614;DHT22;19031;51.400;6.770;2023-05-10T14:28:42;26.50;99.40
32614;DHT22;19031;51.400;6.770;2023-05-10T14:31:08;26.10;97.50
32614;DHT22;19031;51.400;6.770;2023-05-10T14:33:33;25.20;98.70
32614;DHT22;19031;51.400;6.770;2023-05-10T14:35:59;24.70;99.90
32614;DHT22;19031;51.400;6.770;2023-05-10T14:38:25;24.60;99.90
32614;DHT22;19031;51.400;6.770;2023-05-10T14:40:54;24.00;99.90
32614;DHT22;19031;51.400;6.770;2023-05-10T14:43:19;23.30;99.90
32614;DHT22;19031;51.400;6.770;2023-05-10T14:45:45;23.20;99.90
32614;DHT22;19031;51.400;6.770;2023-05-10T14:48:11;23.20;99.90
32614;DHT22;19031;51.400;6.770;2023-05-10T14:50:40;23.10;99.90
32614;DHT22;19031;51.400;6.770;2023-05-10T14:53:09;23.10;99.90
32614;DHT22;19031;51.400;6.770;2023-05-10T14:55:35;23.40;99.90
32614;DHT22;19031;51.400;6.770;2023-05-10T14:58:02;23.60;99.90
32614;DHT22;19031;51.400;6.770;2023-05-10T15:00:30;23.80;99.90
32614;DHT22;19031;51.400;6.770;2023-05-10T15:02:55;23.90;99.90
32614;DHT22;19031;51.400;6.770;2023-05-10T15:05:22;23.80;99.90
32614;DHT22;19031;51.400;6.770;2023-05-10T15:07:47;23.40;99.90
32614;DHT22;19031;51.400;6.770;2023-05-10T15:10:13;22.80;99.90
32614;DHT22;19031;51.400;6.770;2023-05-10T15:12:39;22.50;99.90
32614;DHT22;19031;51.400;6.770;2023-05-10T15:15:05;22.30;99.90
32614;DHT22;19031;51.400;6.770;2023-05-10T15:17:31;22.20;99.90
32614;DHT22;19031;51.400;6.770;2023-05-10T15:20:00;22.00;99.90
32614;DHT22;19031;51.400;6.770;2023-05-10T15:22:28;21.20;99.90
32614;DHT22;19031;51.400;6.770;2023-05-10T15:24:54;21.10;99.90
32614;DHT22;19031;51.400;6.770;2023-05-10T15:27:20;21.10;99.90
32614;DHT22;19031;51.400;6.770;2023-05-10T15:29:45;20.90;99.90
32614;DHT22;19031;51.400;6.770;2023-05-10T15:32:14;20.60;99.90
32614;DHT22;19031;51.400;6.770;2023-05-10T15:34:39;20.20;99.90
32614;DHT22;19031;51.400;6.770;2023-05-10T15:37:06;19.50;99.90
32614;DHT22;19031;51.400;6.770;2023-05-10T15:39:31;18.90;99.90
32614;DHT22;19031;51.400;6.770;2023-05-10T15:42:00;18.20;99.90
32614;DHT22;19031;51.400;6.770;2023-05-10T15:44:26;17.80;99.90
32614;DHT22;19031;51.400;6.770;2023-05-10T15:46:55;17.50;99.90
32614;DHT22;19031;51.400;6.770;2023-05-10T15:49:21;17.00;99.90
32614;DHT22;19031;51.400;6.770;2023-05-10T15:51:46;16.80;99.90
32614;DHT22;19031;51.400;6.770;2023-05-10T15:54:12;16.80;99.90
32614;DHT22;19031;51.400;6.770;2023-05-10T15:56:37;16.70;99.90
32614;DHT22;19031;51.400;6.770;2023-05-10T15:59:03;16.50;99.90